createdAt,value
2023-12-27T00:01:03.960Z,14.42
2023-12-27T00:04:07.472Z,14.43
2023-12-27T00:07:10.113Z,14.42
2023-12-27T00:10:12.844Z,14.40
2023-12-27T00:13:15.531Z,14.36
2023-12-27T00:16:19.406Z,14.39
2023-12-27T00:19:21.971Z,14.36
2023-12-27T00:22:25.439Z,14.30
2023-12-27T00:25:28.160Z,14.35
2023-12-27T00:28:30.521Z,14.36
2023-12-27T00:31:34.400Z,14.34
2023-12-27T00:34:37.410Z,14.28
2023-12-27T00:37:39.986Z,14.28
2023-12-27T00:40:42.662Z,14.32
2023-12-27T00:43:45.005Z,14.30
2023-12-27T00:46:48.851Z,14.29
2023-12-27T00:49:51.394Z,14.29
2023-12-27T00:52:53.941Z,14.24
2023-12-27T00:55:56.528Z,14.25
2023-12-27T00:59:00.334Z,14.25
2023-12-27T01:02:04.515Z,14.24
2023-12-27T01:05:07.643Z,14.23
2023-12-27T01:08:10.174Z,14.22
2023-12-27T01:11:12.778Z,14.21
2023-12-27T01:14:15.274Z,14.19
2023-12-27T01:17:19.033Z,14.19
2023-12-27T01:20:21.454Z,14.19
2023-12-27T01:23:23.923Z,14.12
2023-12-27T01:26:26.510Z,14.14
2023-12-27T01:29:28.946Z,14.12
2023-12-27T01:32:33.471Z,14.13
2023-12-27T01:35:35.919Z,14.13
2023-12-27T01:38:38.365Z,14.12
2023-12-27T01:41:40.785Z,14.12
2023-12-27T01:44:43.767Z,14.10
2023-12-27T01:47:48.537Z,14.08
2023-12-27T01:50:51.764Z,14.08
2023-12-27T01:53:54.361Z,14.07
2023-12-27T01:56:57.436Z,14.02
2023-12-27T02:00:01.117Z,14.03
2023-12-27T02:03:05.444Z,14.00
2023-12-27T02:06:08.338Z,14.04
2023-12-27T02:09:11.574Z,14.02
2023-12-27T02:12:25.005Z,14.01
2023-12-27T02:15:27.827Z,14.01
2023-12-27T02:18:32.213Z,14.00
2023-12-27T02:21:36.610Z,13.99
2023-12-27T02:24:41.718Z,13.99
2023-12-27T02:27:46.071Z,13.98
2023-12-27T02:30:48.558Z,13.97
2023-12-27T02:33:51.157Z,13.96
2023-12-27T02:36:53.844Z,13.95
2023-12-27T02:40:00.306Z,13.92
2023-12-27T02:43:02.961Z,13.94
2023-12-27T02:46:05.822Z,13.94
2023-12-27T02:49:08.308Z,13.93
2023-12-27T02:52:10.816Z,13.92
2023-12-27T02:55:14.583Z,13.91
2023-12-27T02:58:17.001Z,13.89
2023-12-27T03:01:19.448Z,13.89
2023-12-27T03:04:21.915Z,13.89
2023-12-27T03:07:24.405Z,13.88
2023-12-27T03:10:28.161Z,13.87
2023-12-27T03:13:30.672Z,13.85
2023-12-27T03:16:33.203Z,13.84
2023-12-27T03:19:36.001Z,13.85
2023-12-27T03:22:38.510Z,13.85
2023-12-27T03:25:42.292Z,13.82
2023-12-27T03:28:44.784Z,13.82
2023-12-27T03:31:47.265Z,13.80
2023-12-27T03:34:49.738Z,13.80
2023-12-27T03:37:52.144Z,13.80
2023-12-27T03:40:56.905Z,13.79
2023-12-27T03:44:00.496Z,13.79
2023-12-27T03:47:03.532Z,13.78
2023-12-27T03:50:06.728Z,13.74
2023-12-27T03:53:09.324Z,13.76
2023-12-27T03:56:13.091Z,13.76
2023-12-27T03:59:16.337Z,13.74
2023-12-27T04:02:18.825Z,13.74
2023-12-27T04:05:21.730Z,13.72
2023-12-27T04:08:24.751Z,13.71
2023-12-27T04:11:28.564Z,13.72
2023-12-27T04:14:31.443Z,13.74
2023-12-27T04:17:33.944Z,13.78
2023-12-27T04:20:36.609Z,13.82
2023-12-27T04:23:39.049Z,13.87
2023-12-27T04:26:43.188Z,13.91
2023-12-27T04:29:46.074Z,13.98
2023-12-27T04:32:49.025Z,13.98
2023-12-27T04:35:51.465Z,14.10
2023-12-27T04:38:54.002Z,14.19
2023-12-27T04:41:57.896Z,14.29
2023-12-27T04:45:00.725Z,14.40
2023-12-27T04:48:03.368Z,14.51
2023-12-27T04:51:06.523Z,14.67
2023-12-27T04:54:08.960Z,14.83
2023-12-27T04:57:12.850Z,14.99
2023-12-27T05:00:15.748Z,15.15
2023-12-27T05:03:18.314Z,15.30
2023-12-27T05:06:20.915Z,15.45
2023-12-27T05:09:23.561Z,15.58
2023-12-27T05:12:27.418Z,15.69
2023-12-27T05:15:30.069Z,15.80
2023-12-27T05:18:32.601Z,15.87
2023-12-27T05:21:35.501Z,15.90
2023-12-27T05:24:38.064Z,15.92
2023-12-27T05:27:41.930Z,15.93
2023-12-27T05:30:44.630Z,15.89
2023-12-27T05:33:47.321Z,15.92
2023-12-27T05:36:49.875Z,15.90
2023-12-27T05:39:52.344Z,15.88
2023-12-27T05:42:56.506Z,15.84
2023-12-27T05:45:59.116Z,15.81
2023-12-27T05:49:01.672Z,15.77
2023-12-27T05:52:04.545Z,15.72
2023-12-27T05:55:08.529Z,15.68
2023-12-27T05:58:12.286Z,15.59
2023-12-27T06:01:14.825Z,15.60
2023-12-27T06:04:17.669Z,15.55
2023-12-27T06:07:20.192Z,15.51
2023-12-27T06:10:22.794Z,15.46
2023-12-27T06:13:27.137Z,15.41
2023-12-27T06:16:29.673Z,15.38
2023-12-27T06:19:33.177Z,15.33
2023-12-27T06:22:35.672Z,15.31
2023-12-27T06:25:38.338Z,15.29
2023-12-27T06:28:43.322Z,15.28
2023-12-27T06:31:45.911Z,15.28
2023-12-27T06:34:48.376Z,15.30
2023-12-27T06:37:50.953Z,15.32
2023-12-27T06:40:53.732Z,15.37
2023-12-27T06:43:57.729Z,15.40
2023-12-27T06:47:00.381Z,15.45
2023-12-27T06:50:05.191Z,15.46
2023-12-27T06:53:07.801Z,15.51
2023-12-27T06:56:11.139Z,15.53
2023-12-27T06:59:14.925Z,15.52
2023-12-27T07:02:17.498Z,15.51
2023-12-27T07:05:19.953Z,15.55
2023-12-27T07:08:22.487Z,15.54
2023-12-27T07:11:26.318Z,15.49
2023-12-27T07:14:30.312Z,15.51
2023-12-27T07:17:33.460Z,15.50
2023-12-27T07:20:35.942Z,15.48
2023-12-27T07:23:38.450Z,15.45
2023-12-27T07:26:40.918Z,15.41
2023-12-27T07:29:44.889Z,15.39
2023-12-27T07:32:47.486Z,15.35
2023-12-27T07:35:50.537Z,15.32
2023-12-27T07:38:53.327Z,15.29
2023-12-27T07:41:55.797Z,15.27
2023-12-27T07:44:59.659Z,15.24
2023-12-27T07:48:02.706Z,15.17
2023-12-27T07:51:05.983Z,15.19
2023-12-27T07:54:08.940Z,15.16
2023-12-27T07:57:11.969Z,15.15
2023-12-27T08:00:17.082Z,15.14
2023-12-27T08:03:19.571Z,15.13
2023-12-27T08:06:22.719Z,15.08
2023-12-27T08:09:27.487Z,15.15
2023-12-27T08:12:30.080Z,15.15
2023-12-27T08:15:33.994Z,15.17
2023-12-27T08:18:37.008Z,15.21
2023-12-27T08:21:39.694Z,15.24
2023-12-27T08:24:42.063Z,15.33
2023-12-27T08:27:44.901Z,15.35
2023-12-27T08:30:48.753Z,15.37
2023-12-27T08:33:51.669Z,15.43
2023-12-27T08:36:54.359Z,15.49
2023-12-27T08:39:56.905Z,15.50
2023-12-27T08:42:59.722Z,15.57
2023-12-27T08:46:03.767Z,15.62
2023-12-27T08:49:06.344Z,15.65
2023-12-27T08:52:09.813Z,15.65
2023-12-27T08:55:13.553Z,15.68
2023-12-27T08:58:16.038Z,15.67
2023-12-27T09:01:20.471Z,15.67
2023-12-27T09:04:25.370Z,15.75
2023-12-27T09:07:28.240Z,15.77
2023-12-27T09:10:30.741Z,15.79
2023-12-27T09:13:33.136Z,15.78
2023-12-27T09:16:37.417Z,15.81
2023-12-27T09:19:39.903Z,15.85
2023-12-27T09:22:42.496Z,15.89
2023-12-27T09:25:44.995Z,15.87
2023-12-27T09:28:47.672Z,15.93
2023-12-27T09:31:52.076Z,15.95
2023-12-27T09:34:54.685Z,15.98
2023-12-27T09:38:03.067Z,15.97
2023-12-27T09:41:05.931Z,15.98
2023-12-27T09:44:12.125Z,16.00
2023-12-27T09:47:18.262Z,16.03
2023-12-27T09:50:23.107Z,16.05
2023-12-27T09:53:26.490Z,16.08
2023-12-27T09:56:30.815Z,16.08
2023-12-27T09:59:40.151Z,16.11
2023-12-27T10:02:46.737Z,16.07
2023-12-27T10:06:16.568Z,16.04
2023-12-27T10:09:19.543Z,16.03
2023-12-27T10:12:22.575Z,16.00
2023-12-27T10:15:25.381Z,15.99
2023-12-27T10:18:29.523Z,16.01
2023-12-27T10:21:41.921Z,15.99
2023-12-27T10:24:44.472Z,16.06
2023-12-27T10:27:46.867Z,16.06
2023-12-27T10:30:49.454Z,16.01
2023-12-27T10:33:53.604Z,15.93
2023-12-27T10:36:56.524Z,15.82
2023-12-27T10:39:59.453Z,15.72
2023-12-27T10:43:02.320Z,15.65
2023-12-27T10:46:09.726Z,15.63
2023-12-27T10:49:15.346Z,15.54
2023-12-27T10:52:18.811Z,15.55
2023-12-27T10:55:22.181Z,15.52
2023-12-27T10:58:25.397Z,15.48
2023-12-27T11:01:29.267Z,15.44
2023-12-27T11:04:33.460Z,15.41
2023-12-27T11:07:41.259Z,15.35
2023-12-27T11:10:46.008Z,15.34
2023-12-27T11:13:51.165Z,15.33
2023-12-27T11:16:57.120Z,15.30
2023-12-27T11:20:01.899Z,15.26
2023-12-27T11:23:05.523Z,15.25
2023-12-27T11:26:08.220Z,15.25
2023-12-27T11:29:13.087Z,15.25
2023-12-27T11:32:17.254Z,15.27
2023-12-27T11:35:26.238Z,15.30
2023-12-27T11:38:29.367Z,15.35
2023-12-27T11:41:31.980Z,15.46
2023-12-27T11:44:42.077Z,15.52
2023-12-27T11:47:47.550Z,15.55
2023-12-27T11:50:51.721Z,15.57
2023-12-27T11:53:54.630Z,15.58
2023-12-27T11:56:58.172Z,15.55
2023-12-27T12:00:00.619Z,15.53
2023-12-27T12:03:10.269Z,15.52
2023-12-27T12:06:31.314Z,15.53
2023-12-27T12:09:37.806Z,15.49
2023-12-27T12:12:40.554Z,15.43
2023-12-27T12:15:43.501Z,15.43
2023-12-27T12:18:46.975Z,15.35
2023-12-27T12:21:53.410Z,15.37
2023-12-27T12:25:07.270Z,15.33
2023-12-27T12:28:09.962Z,15.31
2023-12-27T12:31:13.648Z,15.31
2023-12-27T12:34:17.676Z,15.29
2023-12-27T12:37:21.898Z,15.26
2023-12-27T12:40:24.450Z,15.23
2023-12-27T12:43:27.372Z,15.25
2023-12-27T12:46:30.107Z,15.21
2023-12-27T12:49:34.141Z,15.24
2023-12-27T12:52:38.602Z,15.21
2023-12-27T12:55:42.944Z,15.18
2023-12-27T12:58:45.652Z,15.14
2023-12-27T13:01:48.494Z,15.12
2023-12-27T13:04:52.164Z,15.11
2023-12-27T13:07:56.361Z,15.11
2023-12-27T13:10:59.209Z,15.09
2023-12-27T13:14:01.997Z,15.00
2023-12-27T13:17:05.035Z,15.02
2023-12-27T13:20:10.715Z,15.00
2023-12-27T13:23:17.794Z,15.03
2023-12-27T13:26:21.035Z,15.03
2023-12-27T13:29:23.691Z,15.01
2023-12-27T13:32:26.209Z,15.03
2023-12-27T13:35:30.155Z,15.02
2023-12-27T13:38:33.998Z,15.02
2023-12-27T13:41:36.435Z,14.99
2023-12-27T13:44:39.326Z,15.00
2023-12-27T13:47:49.306Z,15.03
2023-12-27T13:50:54.210Z,15.07
2023-12-27T13:54:01.258Z,15.08
2023-12-27T13:57:09.799Z,15.09
2023-12-27T14:00:16.131Z,15.07
2023-12-27T14:03:19.397Z,15.06
2023-12-27T14:06:23.110Z,15.04
2023-12-27T14:09:27.038Z,14.99
2023-12-27T14:12:30.012Z,15.00
2023-12-27T14:15:32.542Z,14.99
2023-12-27T14:18:35.150Z,14.98
2023-12-27T14:21:37.855Z,14.97
2023-12-27T14:24:41.905Z,14.96
2023-12-27T14:27:44.670Z,14.96
2023-12-27T14:30:47.439Z,15.01
2023-12-27T14:33:50.160Z,14.97
2023-12-27T14:36:52.726Z,14.98
2023-12-27T14:39:56.673Z,14.97
2023-12-27T14:43:00.113Z,15.01
2023-12-27T14:46:04.728Z,15.03
2023-12-27T14:49:07.641Z,15.06
2023-12-27T14:52:10.040Z,15.11
2023-12-27T14:55:13.994Z,15.11
2023-12-27T14:58:17.139Z,15.13
2023-12-27T15:01:19.750Z,15.15
2023-12-27T15:04:24.001Z,15.16
2023-12-27T15:07:26.911Z,15.17
2023-12-27T15:10:30.575Z,15.16
2023-12-27T15:13:33.354Z,15.18
2023-12-27T15:16:35.789Z,15.17
2023-12-27T15:19:38.509Z,15.17
2023-12-27T15:22:41.017Z,15.17
2023-12-27T15:25:46.103Z,15.15
2023-12-27T15:28:49.582Z,15.15
2023-12-27T15:31:52.051Z,15.14
2023-12-27T15:34:56.610Z,15.16
2023-12-27T15:37:59.536Z,15.13
2023-12-27T15:41:04.521Z,15.13
2023-12-27T15:44:07.307Z,15.13
2023-12-27T15:47:10.365Z,15.12
2023-12-27T15:50:13.004Z,15.11
2023-12-27T15:53:15.341Z,15.10
2023-12-27T15:56:27.379Z,15.05
2023-12-27T15:59:29.885Z,15.08
2023-12-27T16:02:32.466Z,15.08
2023-12-27T16:05:34.962Z,15.12
2023-12-27T16:08:37.456Z,15.09
2023-12-27T16:11:44.241Z,15.09
2023-12-27T16:14:46.856Z,15.08
2023-12-27T16:17:49.548Z,15.08
2023-12-27T16:20:52.135Z,15.06
2023-12-27T16:23:54.953Z,15.07
2023-12-27T16:26:59.024Z,15.05
2023-12-27T16:30:01.613Z,15.06
2023-12-27T16:33:04.243Z,15.04
2023-12-27T16:36:07.297Z,15.04
2023-12-27T16:39:10.296Z,15.04
2023-12-27T16:42:15.689Z,15.04
2023-12-27T16:45:25.262Z,15.05
2023-12-27T16:48:27.874Z,15.03
2023-12-27T16:51:30.388Z,15.03
2023-12-27T16:54:33.045Z,15.04
2023-12-27T16:57:37.123Z,15.04
2023-12-27T17:00:40.244Z,15.03
2023-12-27T17:03:43.088Z,15.05
2023-12-27T17:06:45.864Z,15.02
2023-12-27T17:09:49.489Z,15.02
2023-12-27T17:12:54.685Z,15.01
2023-12-27T17:15:57.686Z,15.03
2023-12-27T17:19:00.438Z,15.02
2023-12-27T17:22:03.000Z,15.01
2023-12-27T17:25:09.390Z,14.99
2023-12-27T17:28:13.154Z,15.02
2023-12-27T17:31:15.651Z,15.04
2023-12-27T17:34:18.248Z,15.02
2023-12-27T17:37:21.148Z,15.02
2023-12-27T17:40:23.613Z,14.98
2023-12-27T17:43:27.971Z,15.02
2023-12-27T17:46:30.417Z,15.02
2023-12-27T17:49:33.072Z,15.01
2023-12-27T17:52:36.088Z,15.00
2023-12-27T17:55:38.584Z,14.98
2023-12-27T17:58:42.463Z,15.02
2023-12-27T18:01:45.093Z,15.01
2023-12-27T18:04:48.960Z,15.02
2023-12-27T18:07:51.569Z,15.23
2023-12-27T18:10:54.054Z,15.35
2023-12-27T18:13:57.816Z,15.47
2023-12-27T18:17:00.785Z,15.53
2023-12-27T18:20:04.778Z,15.57
2023-12-27T18:23:07.637Z,15.66
2023-12-27T18:26:10.080Z,15.65
2023-12-27T18:29:14.290Z,15.66
2023-12-27T18:32:16.797Z,15.68
2023-12-27T18:35:19.481Z,15.69
2023-12-27T18:38:21.802Z,15.70
2023-12-27T18:41:24.216Z,15.68
2023-12-27T18:44:27.998Z,15.72
2023-12-27T18:47:30.765Z,15.73
2023-12-27T18:50:33.240Z,15.74
2023-12-27T18:53:35.885Z,15.76
2023-12-27T18:56:38.342Z,15.76
2023-12-27T18:59:42.214Z,15.73
2023-12-27T19:02:44.774Z,15.73
2023-12-27T19:05:49.081Z,15.68
2023-12-27T19:08:52.023Z,15.57
2023-12-27T19:11:54.490Z,15.52
2023-12-27T19:15:00.523Z,15.47
2023-12-27T19:18:04.738Z,15.42
2023-12-27T19:21:08.751Z,15.37
2023-12-27T19:24:11.248Z,15.39
2023-12-27T19:27:14.040Z,15.36
2023-12-27T19:30:18.179Z,15.34
2023-12-27T19:33:20.808Z,15.34
2023-12-27T19:36:23.230Z,15.32
2023-12-27T19:39:25.749Z,15.31
2023-12-27T19:42:28.325Z,15.28
2023-12-27T19:45:32.275Z,15.29
2023-12-27T19:48:34.842Z,15.28
2023-12-27T19:51:37.436Z,15.27
2023-12-27T19:54:41.236Z,15.27
2023-12-27T19:57:44.025Z,15.26
2023-12-27T20:00:49.413Z,15.25
2023-12-27T20:03:52.866Z,15.23
2023-12-27T20:06:55.538Z,15.23
2023-12-27T20:09:58.072Z,15.19
2023-12-27T20:13:04.566Z,15.22
2023-12-27T20:16:08.954Z,15.18
2023-12-27T20:19:11.540Z,15.22
2023-12-27T20:22:14.088Z,15.21
2023-12-27T20:25:17.665Z,15.20
2023-12-27T20:28:20.792Z,15.20
2023-12-27T20:31:24.654Z,15.18
2023-12-27T20:34:27.218Z,15.19
2023-12-27T20:37:29.768Z,15.22
2023-12-27T20:40:32.629Z,15.18
2023-12-27T20:43:36.816Z,15.20
2023-12-27T20:46:40.552Z,15.18
2023-12-27T20:49:43.286Z,15.19
2023-12-27T20:52:45.740Z,15.19
2023-12-27T20:55:48.117Z,15.18
2023-12-27T20:58:50.540Z,15.18
2023-12-27T21:01:54.261Z,15.19
2023-12-27T21:04:56.728Z,15.19
2023-12-27T21:07:59.444Z,15.19
2023-12-27T21:11:02.234Z,15.17
2023-12-27T21:14:04.662Z,15.15
2023-12-27T21:17:08.607Z,15.15
2023-12-27T21:20:13.049Z,15.14
2023-12-27T21:23:15.469Z,15.13
2023-12-27T21:26:18.940Z,15.11
2023-12-27T21:29:21.525Z,15.10
2023-12-27T21:32:25.425Z,15.09
2023-12-27T21:35:28.102Z,15.09
2023-12-27T21:38:30.560Z,15.09
2023-12-27T21:41:33.077Z,15.08
2023-12-27T21:44:35.955Z,15.09
2023-12-27T21:47:40.820Z,15.04
2023-12-27T21:50:43.997Z,15.02
2023-12-27T21:53:46.836Z,15.01
2023-12-27T21:56:49.252Z,14.99
2023-12-27T21:59:51.676Z,14.99
2023-12-27T22:02:58.363Z,14.97
2023-12-27T22:06:00.801Z,14.96
2023-12-27T22:09:03.530Z,14.96
2023-12-27T22:12:07.740Z,14.94
2023-12-27T22:15:11.139Z,14.92
2023-12-27T22:18:15.262Z,14.91
2023-12-27T22:21:19.202Z,14.91
2023-12-27T22:24:21.807Z,14.90
2023-12-27T22:27:24.312Z,14.88
2023-12-27T22:30:26.936Z,14.88
2023-12-27T22:33:30.831Z,14.86
2023-12-27T22:36:33.405Z,14.86
2023-12-27T22:39:35.882Z,14.82
2023-12-27T22:42:38.663Z,14.82
2023-12-27T22:45:41.069Z,14.80
2023-12-27T22:48:44.991Z,14.80
2023-12-27T22:51:49.144Z,14.80
2023-12-27T22:54:51.657Z,14.78
2023-12-27T22:57:54.201Z,14.76
2023-12-27T23:00:56.852Z,14.75
2023-12-27T23:04:00.839Z,14.74
2023-12-27T23:07:03.665Z,14.71
2023-12-27T23:10:06.905Z,14.71
2023-12-27T23:13:09.341Z,14.71
2023-12-27T23:16:11.770Z,14.72
2023-12-27T23:19:15.721Z,14.68
2023-12-27T23:22:18.556Z,14.64
2023-12-27T23:25:21.064Z,14.66
2023-12-27T23:28:23.869Z,14.63
2023-12-27T23:31:26.529Z,14.64
2023-12-27T23:34:30.431Z,14.64
2023-12-27T23:37:32.944Z,14.63
2023-12-27T23:40:38.001Z,14.60
2023-12-27T23:43:40.463Z,14.57
2023-12-27T23:46:42.878Z,14.63
2023-12-27T23:49:46.687Z,14.63
2023-12-27T23:52:49.279Z,14.57
2023-12-27T23:55:52.015Z,14.59
2023-12-27T23:58:54.441Z,14.58
